Time;durP1;ratioP1;P1;durP2;ratioP2;P2;SDS_P1;SDS_P2;PMS_P1;PMS_P2;Temp;Humidity;BMP_temperature;BMP_pressure;BME280_temperature;BME280_humidity;BME280_pressure;Samples;Min_cycle;Max_cycle;Signal;HPM_P1;HPM_P2
2022/05/09 00:01:20;;;;;;;;;;;;;;;7.22;75.16;99299.94;5034585;28;19929;-60
2022/05/09 00:03:46;;;;;;;;;;;;;;;7.21;74.69;99295.69;5033563;28;20387;-60
2022/05/09 00:06:11;;;;;;;;;;;;;;;7.16;74.60;99292.91;5034757;28;19971;-60
2022/05/09 00:08:43;;;;;;;;;;;;;;;7.18;74.84;99292.69;5035035;28;20041;-60
2022/05/09 00:11:09;;;;;;;;;;;;;;;7.16;74.45;99286.81;5034620;28;19932;-60
2022/05/09 00:13:35;;;;;;;;;;;;;;;7.16;74.52;99292.91;5034254;28;19936;-62
2022/05/09 00:16:01;;;;;;;;;;;;;;;7.15;74.45;99285.22;5034545;28;19929;-61
2022/05/09 00:18:26;;;;;;;;;;;;;;;7.10;74.97;99280.59;5034245;28;19929;-61
2022/05/09 00:20:52;;;;;;;;;;;;;;;7.04;75.14;99289.38;5034242;28;20353;-60
2022/05/09 00:23:17;;;;;;;;;;;;;;;7.03;74.60;99290.41;5034068;28;20040;-61
2022/05/09 00:25:43;;;;;;;;;;;;;;;7.00;74.94;99288.16;5032979;28;19925;-61
2022/05/09 00:28:09;;;;;;;;;;;;;;;7.00;74.64;99283.72;5034304;28;20351;-60
2022/05/09 00:30:34;;;;;;;;;;;;;;;6.94;74.08;99283.75;5034182;28;19925;-60
2022/05/09 00:33:00;;;;;;;;;;;;;;;6.96;75.08;99292.25;5034228;28;19940;-65
2022/05/09 00:35:25;;;;;;;;;;;;;;;6.98;74.68;99288.41;5032894;28;19955;-61
2022/05/09 00:37:50;;;;;;;;;;;;;;;6.94;74.08;99291.66;5033924;28;19928;-61
2022/05/09 00:40:16;;;;;;;;;;;;;;;6.89;74.71;99289.69;5034150;28;19925;-60
2022/05/09 00:42:52;;;;;;;;;;;;;;;6.93;74.10;99293.50;5032564;28;19936;-61
2022/05/09 00:45:18;;;;;;;;;;;;;;;6.91;74.90;99292.94;5033671;28;19925;-61
2022/05/09 00:47:48;;;;;;;;;;;;;;;6.91;74.55;99295.56;5032818;28;19951;-61
2022/05/09 00:50:18;;;;;;;;;;;;;;;6.93;74.68;99296.13;5033759;28;19924;-61
2022/05/09 00:52:48;;;;;;;;;;;;;;;6.95;73.80;99302.00;5032450;28;19931;-60
2022/05/09 00:55:19;;;;;;;;;;;;;;;6.89;74.12;99289.69;5016186;28;19979;-61
2022/05/09 00:57:57;;;;;;;;;;;;;;;6.86;74.39;99291.97;5033729;28;19936;-59
2022/05/09 01:00:23;;;;;;;;;;;;;;;6.82;73.88;99294.19;5033365;28;19925;-60
2022/05/09 01:02:59;;;;;;;;;;;;;;;6.81;74.36;99293.38;5032166;28;19936;-61
2022/05/09 01:05:25;;;;;;;;;;;;;;;6.79;74.13;99299.91;5032149;28;19956;-60
2022/05/09 01:07:51;;;;;;;;;;;;;;;6.82;73.70;99305.56;5033548;28;19987;-61
2022/05/09 01:10:16;;;;;;;;;;;;;;;6.76;74.10;99310.84;5032161;28;19925;-60
2022/05/09 01:12:42;;;;;;;;;;;;;;;6.80;73.54;99310.22;5033500;28;19986;-61
2022/05/09 01:15:09;;;;;;;;;;;;;;;6.79;73.60;99311.25;5033465;28;20317;-60
2022/05/09 01:17:39;;;;;;;;;;;;;;;6.82;73.63;99302.94;5031945;28;19929;-60
2022/05/09 01:20:05;;;;;;;;;;;;;;;6.85;73.17;99301.66;5031819;28;19924;-61
2022/05/09 01:22:34;;;;;;;;;;;;;;;6.81;72.14;99301.28;5032776;28;19940;-61
2022/05/09 01:25:03;;;;;;;;;;;;;;;6.78;72.38;99300.94;5033115;28;19925;-59
2022/05/09 01:27:30;;;;;;;;;;;;;;;6.81;72.38;99303.13;5033308;28;20026;-60
2022/05/09 01:30:08;;;;;;;;;;;;;;;6.81;72.31;99306.56;5033209;28;20345;-61
2022/05/09 01:32:36;;;;;;;;;;;;;;;6.85;71.41;99298.22;5033129;28;19929;-62
2022/05/09 01:35:04;;;;;;;;;;;;;;;6.88;71.88;99292.53;5032822;28;19925;-61
2022/05/09 01:37:30;;;;;;;;;;;;;;;6.85;71.39;99288.50;5031049;28;19929;-61
2022/05/09 01:39:56;;;;;;;;;;;;;;;6.83;70.82;99283.44;5031813;28;19960;-61
2022/05/09 01:42:22;;;;;;;;;;;;;;;6.77;70.96;99278.25;5033070;28;19975;-61
2022/05/09 01:44:49;;;;;;;;;;;;;;;6.74;71.43;99286.59;5032937;28;20027;-61
2022/05/09 01:49:59;;;;;;;;;;;;;;;6.74;71.25;99283.94;5032749;28;20361;-61
2022/05/09 01:52:26;;;;;;;;;;;;;;;6.78;71.60;99285.13;5032398;28;20078;-60
2022/05/09 01:54:51;;;;;;;;;;;;;;;6.75;70.61;99275.81;5031276;28;19928;-61
2022/05/09 01:57:17;;;;;;;;;;;;;;;6.76;70.77;99279.25;5030801;28;19924;-60
2022/05/09 01:59:43;;;;;;;;;;;;;;;6.82;70.54;99288.94;5014748;28;19929;-60
2022/05/09 02:02:13;;;;;;;;;;;;;;;6.85;70.32;99288.50;5031047;28;19976;-61
2022/05/09 02:04:40;;;;;;;;;;;;;;;6.81;70.35;99300.50;5032540;28;19928;-61
2022/05/09 02:07:09;;;;;;;;;;;;;;;6.73;71.03;99298.91;5032714;28;20020;-60
2022/05/09 02:09:45;;;;;;;;;;;;;;;6.76;71.31;99298.50;5031303;28;20015;-61
2022/05/09 02:12:11;;;;;;;;;;;;;;;6.81;71.51;99305.75;5032656;28;19929;-61
2022/05/09 02:14:37;;;;;;;;;;;;;;;6.81;71.04;99313.66;5032178;28;20020;-61
2022/05/09 02:17:04;;;;;;;;;;;;;;;6.76;71.52;99308.22;5032560;28;19925;-60
2022/05/09 02:19:29;;;;;;;;;;;;;;;6.75;71.91;99309.25;5032361;28;19936;-61
2022/05/09 02:21:55;;;;;;;;;;;;;;;6.79;71.48;99307.78;5032351;28;19925;-62
2022/05/09 02:24:22;;;;;;;;;;;;;;;6.81;71.16;99309.19;5032364;28;20377;-60
2022/05/09 02:26:48;;;;;;;;;;;;;;;6.78;71.47;99309.63;5032280;28;19960;-60
2022/05/09 02:29:13;;;;;;;;;;;;;;;6.82;71.41;99317.91;5030773;28;19948;-61
2022/05/09 02:31:39;;;;;;;;;;;;;;;6.75;71.57;99320.59;5030910;28;19925;-61
2022/05/09 02:34:04;;;;;;;;;;;;;;;6.69;71.37;99315.38;5032464;28;20394;-60
2022/05/09 02:36:30;;;;;;;;;;;;;;;6.68;71.02;99311.94;5032189;28;19925;-60
2022/05/09 02:38:55;;;;;;;;;;;;;;;6.62;70.75;99312.81;5030738;28;19936;-60
2022/05/09 02:41:22;;;;;;;;;;;;;;;6.54;70.83;99327.03;5032157;28;19921;-60
2022/05/09 02:43:47;;;;;;;;;;;;;;;6.56;70.50;99322.38;5031928;28;20022;-59
2022/05/09 02:46:13;;;;;;;;;;;;;;;6.57;70.55;99331.88;5032037;28;19987;-61
2022/05/09 02:48:39;;;;;;;;;;;;;;;6.56;71.55;99326.81;5031680;28;19929;-61
2022/05/09 02:51:05;;;;;;;;;;;;;;;6.58;70.29;99322.13;5032007;28;20003;-61
2022/05/09 02:53:31;;;;;;;;;;;;;;;6.56;70.79;99326.81;5031603;28;19969;-59
2022/05/09 02:55:57;;;;;;;;;;;;;;;6.47;69.99;99331.53;5031781;28;19964;-59
2022/05/09 02:58:22;;;;;;;;;;;;;;;6.47;70.61;99334.16;5013992;28;19933;-60
2022/05/09 03:00:48;;;;;;;;;;;;;;;6.33;70.99;99333.44;5031576;28;19931;-60
2022/05/09 03:05:58;;;;;;;;;;;;;;;6.32;70.73;99325.72;5030444;28;20422;-60
2022/05/09 03:08:24;;;;;;;;;;;;;;;6.22;69.81;99331.47;5032497;28;19929;-61
2022/05/09 03:10:50;;;;;;;;;;;;;;;6.14;69.89;99323.78;5034380;28;19925;-61
2022/05/09 03:13:15;;;;;;;;;;;;;;;6.14;69.42;99326.44;5034583;28;19936;-62
2022/05/09 03:15:42;;;;;;;;;;;;;;;6.16;69.54;99323.59;5035557;28;19971;-60
2022/05/09 03:18:08;;;;;;;;;;;;;;;6.29;69.51;99326.16;5035692;28;19977;-60
2022/05/09 03:20:33;;;;;;;;;;;;;;;6.42;68.98;99328.72;5035606;28;20326;-61
2022/05/09 03:22:59;;;;;;;;;;;;;;;6.50;68.60;99333.75;5035490;28;19929;-60
2022/05/09 03:25:26;;;;;;;;;;;;;;;6.50;68.93;99327.66;5035513;28;19924;-60
2022/05/09 03:27:51;;;;;;;;;;;;;;;6.41;69.08;99328.91;5035504;28;20021;-60
2022/05/09 03:30:17;;;;;;;;;;;;;;;6.39;69.90;99331.78;5034007;28;20468;-59
2022/05/09 03:32:44;;;;;;;;;;;;;;;6.29;69.55;99318.25;5034126;28;19948;-61
2022/05/09 03:35:10;;;;;;;;;;;;;;;6.29;69.13;99326.94;5035374;28;19948;-61
2022/05/09 03:37:36;;;;;;;;;;;;;;;6.21;69.23;99334.31;5035248;28;20393;-61
2022/05/09 03:40:02;;;;;;;;;;;;;;;6.23;68.88;99332.25;5035209;28;19948;-60
2022/05/09 03:42:28;;;;;;;;;;;;;;;6.29;68.85;99331.41;5017189;28;20036;-60
2022/05/09 03:44:54;;;;;;;;;;;;;;;6.31;68.79;99334.66;5035220;28;20019;-60
2022/05/09 03:47:19;;;;;;;;;;;;;;;6.34;68.49;99337.66;5033855;28;19925;-60
2022/05/09 03:49:45;;;;;;;;;;;;;;;6.34;68.80;99337.66;5035076;28;19929;-60
2022/05/09 03:52:10;;;;;;;;;;;;;;;6.55;68.47;99330.47;5035154;28;19929;-60
2022/05/09 03:54:36;;;;;;;;;;;;;;;6.89;67.01;99331.06;5034987;28;19929;-60
2022/05/09 03:57:02;;;;;;;;;;;;;;;7.26;65.41;99343.31;5033652;28;20306;-60
2022/05/09 03:59:27;;;;;;;;;;;;;;;7.94;64.53;99333.66;5034658;28;19975;-60
2022/05/09 04:01:53;;;;;;;;;;;;;;;8.59;61.11;99333.88;5034553;28;19934;-59
2022/05/09 04:04:19;;;;;;;;;;;;;;;8.85;60.16;99331.84;5033387;28;19929;-61
2022/05/09 04:06:44;;;;;;;;;;;;;;;9.01;58.99;99338.31;5034809;28;19968;-60
2022/05/09 04:09:10;;;;;;;;;;;;;;;9.19;58.92;99338.22;5016754;28;19933;-60
2022/05/09 04:11:35;;;;;;;;;;;;;;;9.10;58.13;99361.56;5034329;28;19925;-60
2022/05/09 04:14:01;;;;;;;;;;;;;;;8.95;58.34;99350.63;5034341;28;19940;-60
2022/05/09 04:19:11;;;;;;;;;;;;;;;8.47;59.40;99351.53;5033809;28;20605;-61
2022/05/09 04:21:36;;;;;;;;;;;;;;;8.49;59.50;99348.66;5033134;28;19932;-60
2022/05/09 04:24:02;;;;;;;;;;;;;;;8.32;59.49;99346.59;5033285;28;19929;-62
2022/05/09 04:26:31;;;;;;;;;;;;;;;8.52;59.64;99359.56;5034500;28;20387;-60
2022/05/09 04:28:56;;;;;;;;;;;;;;;8.40;59.38;99350.78;5034371;28;20302;-60
2022/05/09 04:31:22;;;;;;;;;;;;;;;8.51;59.01;99362.44;5032850;28;19925;-60
2022/05/09 04:33:49;;;;;;;;;;;;;;;8.84;58.31;99365.41;5032804;28;20362;-60
2022/05/09 04:36:16;;;;;;;;;;;;;;;9.19;57.59;99359.38;5034183;28;19971;-62
2022/05/09 04:38:43;;;;;;;;;;;;;;;9.42;56.80;99357.78;5033868;28;19929;-61
2022/05/09 04:41:10;;;;;;;;;;;;;;;9.15;56.36;99367.97;5034054;28;19925;-60
2022/05/09 04:43:36;;;;;;;;;;;;;;;8.99;57.19;99364.19;5033717;28;19929;-59
2022/05/09 04:46:03;;;;;;;;;;;;;;;8.75;58.24;99366.75;5033982;28;19924;-61
2022/05/09 04:48:29;;;;;;;;;;;;;;;8.71;58.27;99367.47;5032773;28;19955;-60
2022/05/09 04:50:54;;;;;;;;;;;;;;;8.87;57.78;99369.44;5034064;28;19925;-61
2022/05/09 04:53:20;;;;;;;;;;;;;;;8.90;57.49;99370.81;5033669;28;20331;-60
2022/05/09 04:55:45;;;;;;;;;;;;;;;9.02;58.39;99369.00;5033726;28;19979;-60
2022/05/09 04:58:12;;;;;;;;;;;;;;;9.20;57.78;99370.75;5032584;28;20027;-60
2022/05/09 05:00:38;;;;;;;;;;;;;;;9.31;58.37;99364.69;5032198;28;19925;-59
2022/05/09 05:03:03;;;;;;;;;;;;;;;9.37;56.06;99363.75;5033344;28;20275;-60
2022/05/09 05:05:29;;;;;;;;;;;;;;;9.02;58.08;99372.44;5032223;28;19925;-60
2022/05/09 05:07:54;;;;;;;;;;;;;;;9.17;57.79;99381.78;5033583;28;19929;-61
2022/05/09 05:10:20;;;;;;;;;;;;;;;9.24;57.45;99358.72;5032208;28;20382;-60
2022/05/09 05:12:45;;;;;;;;;;;;;;;9.39;56.44;99360.91;5033420;28;19929;-60
2022/05/09 05:15:11;;;;;;;;;;;;;;;9.46;56.29;99370.31;5048902;28;19925;-60
2022/05/09 05:17:37;;;;;;;;;;;;;;;9.35;56.08;99372.94;5032000;28;19936;-60
2022/05/09 05:20:04;;;;;;;;;;;;;;;9.39;56.06;99390.00;5031327;28;19972;-60
2022/05/09 05:22:31;;;;;;;;;;;;;;;9.17;56.21;99384.44;5032908;28;19964;-60
2022/05/09 05:24:57;;;;;;;;;;;;;;;9.24;56.81;99378.03;5031754;28;19925;-61
2022/05/09 05:27:22;;;;;;;;;;;;;;;9.16;55.70;99377.53;5031906;28;20374;-61
2022/05/09 05:29:50;;;;;;;;;;;;;;;9.02;55.80;99385.69;5033057;28;20414;-62
2022/05/09 05:32:17;;;;;;;;;;;;;;;9.15;55.49;99383.84;5030564;28;19971;-60
2022/05/09 05:34:43;;;;;;;;;;;;;;;9.16;55.44;99381.00;5033058;28;19952;-59
2022/05/09 05:37:08;;;;;;;;;;;;;;;9.38;54.92;99388.38;5033203;28;20414;-60
2022/05/09 05:39:36;;;;;;;;;;;;;;;9.35;54.77;99392.28;5031398;28;20407;-60
2022/05/09 05:42:03;;;;;;;;;;;;;;;9.54;53.81;99393.00;5032961;28;19979;-61
2022/05/09 05:44:28;;;;;;;;;;;;;;;9.58;53.50;99394.13;5032813;28;19929;-59
2022/05/09 05:46:54;;;;;;;;;;;;;;;9.70;53.12;99394.13;5032509;28;19932;-61
2022/05/09 05:49:26;;;;;;;;;;;;;;;9.54;51.46;99393.00;5032841;28;19929;-60
2022/05/09 05:51:51;;;;;;;;;;;;;;;9.46;52.73;99394.13;5032878;28;20393;-61
2022/05/09 05:54:17;;;;;;;;;;;;;;;9.44;51.76;99395.38;5031545;28;20409;-59
2022/05/09 05:56:42;;;;;;;;;;;;;;;9.18;53.21;99401.94;5032618;28;19928;-60
2022/05/09 05:59:09;;;;;;;;;;;;;;;9.20;54.00;99410.44;5032465;28;19951;-61
2022/05/09 06:01:34;;;;;;;;;;;;;;;9.14;52.91;99398.13;5032311;28;19929;-61
2022/05/09 06:04:00;;;;;;;;;;;;;;;9.24;53.15;99399.19;5032565;28;19929;-61
2022/05/09 06:06:26;;;;;;;;;;;;;;;9.34;54.07;99406.53;5032485;28;19932;-61
2022/05/09 06:08:51;;;;;;;;;;;;;;;9.38;52.75;99404.25;5030972;28;19929;-61
2022/05/09 06:11:17;;;;;;;;;;;;;;;9.21;52.86;99402.28;5032368;28;19960;-60
2022/05/09 06:13:42;;;;;;;;;;;;;;;9.13;52.99;99404.44;5031238;28;20302;-60
2022/05/09 06:16:08;;;;;;;;;;;;;;;9.33;52.83;99408.38;5032383;28;19932;-60
2022/05/09 06:18:33;;;;;;;;;;;;;;;9.31;52.59;99417.56;5032085;28;19975;-60
2022/05/09 06:20:59;;;;;;;;;;;;;;;9.28;53.21;99420.69;5030712;28;19947;-61
2022/05/09 06:23:25;;;;;;;;;;;;;;;9.34;53.11;99419.78;5032156;28;19955;-60
2022/05/09 06:25:51;;;;;;;;;;;;;;;9.20;53.01;99421.81;5032384;28;20015;-60
2022/05/09 06:28:17;;;;;;;;;;;;;;;9.13;52.29;99421.13;5031023;28;20183;-61
2022/05/09 06:30:44;;;;;;;;;;;;;;;9.02;52.85;99421.88;5032021;28;20289;-61
2022/05/09 06:33:09;;;;;;;;;;;;;;;9.00;53.43;99426.59;5031831;28;20398;-61
2022/05/09 06:35:43;;;;;;;;;;;;;;;9.27;52.63;99427.03;5032143;28;20015;-61
2022/05/09 06:38:10;;;;;;;;;;;;;;;9.49;51.85;99440.50;5014328;28;19929;-62
2022/05/09 06:40:36;;;;;;;;;;;;;;;9.75;51.25;99413.56;5031917;28;19925;-61
2022/05/09 06:43:03;;;;;;;;;;;;;;;9.98;49.72;99436.59;5031718;28;20521;-61
2022/05/09 06:45:32;;;;;;;;;;;;;;;9.80;50.42;99422.69;5014903;28;19999;-61
2022/05/09 06:47:58;;;;;;;;;;;;;;;9.80;52.07;99420.03;5031782;28;19996;-61
2022/05/09 06:50:25;;;;;;;;;;;;;;;9.98;51.26;99425.19;5030455;28;20023;-59
2022/05/09 06:52:51;;;;;;;;;;;;;;;10.14;50.21;99421.81;5030841;28;19933;-60
2022/05/09 06:55:17;;;;;;;;;;;;;;;10.27;48.85;99423.44;5031794;28;19971;-60
2022/05/09 06:57:43;;;;;;;;;;;;;;;10.02;48.17;99427.13;5031664;28;19928;-61
2022/05/09 07:00:10;;;;;;;;;;;;;;;9.81;48.22;99433.03;5031868;28;20036;-61
2022/05/09 07:02:36;;;;;;;;;;;;;;;9.65;47.79;99426.59;5031307;28;20378;-61
2022/05/09 07:05:06;;;;;;;;;;;;;;;9.90;49.01;99426.34;5031858;28;20375;-60
2022/05/09 07:07:37;;;;;;;;;;;;;;;9.86;49.73;99425.19;5031832;28;19929;-61
2022/05/09 07:10:03;;;;;;;;;;;;;;;9.73;48.34;99428.06;5031544;28;20378;-61
2022/05/09 07:12:29;;;;;;;;;;;;;;;9.47;49.75;99434.63;5031780;28;20314;-60
2022/05/09 07:14:54;;;;;;;;;;;;;;;9.48;50.52;99439.69;5030967;28;20027;-61
2022/05/09 07:17:20;;;;;;;;;;;;;;;9.32;50.18;99438.53;5031401;28;20011;-61
2022/05/09 07:19:46;;;;;;;;;;;;;;;9.46;50.59;99433.81;5031529;28;19936;-61
2022/05/09 07:22:11;;;;;;;;;;;;;;;9.43;50.15;99442.22;5031284;28;20306;-60
2022/05/09 07:24:37;;;;;;;;;;;;;;;9.27;50.99;99441.03;5031490;28;19929;-61
2022/05/09 07:27:02;;;;;;;;;;;;;;;9.07;51.20;99443.97;5031852;28;19944;-59
2022/05/09 07:29:28;;;;;;;;;;;;;;;9.23;51.12;99431.94;5031617;28;19952;-61
2022/05/09 07:31:53;;;;;;;;;;;;;;;9.62;50.48;99436.81;5013891;28;19990;-61
2022/05/09 07:34:19;;;;;;;;;;;;;;;9.72;50.14;99443.16;5031357;28;19936;-60
2022/05/09 07:36:45;;;;;;;;;;;;;;;9.93;49.71;99428.50;5031618;28;20424;-61
2022/05/09 07:39:13;;;;;;;;;;;;;;;9.90;49.21;99428.97;5031607;28;19933;-61
2022/05/09 07:41:38;;;;;;;;;;;;;;;9.74;49.95;99427.84;5031497;28;19924;-61
2022/05/09 07:44:04;;;;;;;;;;;;;;;9.74;49.44;99435.78;5029908;28;19937;-64
2022/05/09 07:46:29;;;;;;;;;;;;;;;9.95;50.25;99441.53;5030023;28;19929;-62
2022/05/09 07:48:55;;;;;;;;;;;;;;;9.83;48.47;99430.16;5030278;28;19929;-61
2022/05/09 07:51:21;;;;;;;;;;;;;;;9.54;48.91;99430.84;5031378;28;19929;-60
2022/05/09 07:53:46;;;;;;;;;;;;;;;9.35;49.90;99433.78;5031419;28;20327;-60
2022/05/09 07:56:12;;;;;;;;;;;;;;;9.16;49.44;99438.38;5034666;28;19925;-61
2022/05/09 07:58:37;;;;;;;;;;;;;;;9.35;49.44;99439.88;5034859;28;20433;-63
2022/05/09 08:01:03;;;;;;;;;;;;;;;9.64;48.75;99424.16;5034509;28;20413;-61
2022/05/09 08:03:30;;;;;;;;;;;;;;;9.82;47.98;99421.38;5034483;28;19936;-61
2022/05/09 08:05:56;;;;;;;;;;;;;;;9.83;47.41;99430.97;5033538;28;19932;-63
2022/05/09 08:08:22;;;;;;;;;;;;;;;9.41;46.11;99454.03;5034469;28;19979;-61
2022/05/09 08:10:48;;;;;;;;;;;;;;;9.30;45.86;99460.94;5034827;28;19964;-61
2022/05/09 08:13:15;;;;;;;;;;;;;;;8.93;47.41;99455.78;5034726;28;20426;-61
2022/05/09 08:15:41;;;;;;;;;;;;;;;8.81;50.30;99455.72;5034357;28;19972;-61
2022/05/09 08:18:06;;;;;;;;;;;;;;;8.77;51.41;99470.44;5033330;28;19983;-61
2022/05/09 08:20:34;;;;;;;;;;;;;;;8.56;50.95;99457.66;5034422;28;19939;-61
2022/05/09 08:23:01;;;;;;;;;;;;;;;8.35;52.31;99464.19;5034440;28;19975;-60
2022/05/09 08:25:26;;;;;;;;;;;;;;;8.18;52.25;99464.00;5034240;28;20375;-62
2022/05/09 08:27:52;;;;;;;;;;;;;;;8.22;52.93;99465.16;5034253;28;19936;-61
2022/05/09 08:30:18;;;;;;;;;;;;;;;8.33;52.43;99474.19;5033917;28;19936;-61
2022/05/09 08:32:43;;;;;;;;;;;;;;;8.64;52.19;99468.75;5033799;28;19944;-60
2022/05/09 08:35:09;;;;;;;;;;;;;;;8.96;51.12;99460.59;5033609;28;19931;-60
2022/05/09 08:37:35;;;;;;;;;;;;;;;9.41;50.90;99467.28;5033547;28;19929;-58
2022/05/09 08:40:01;;;;;;;;;;;;;;;9.49;51.21;99480.97;5033790;28;19929;-61
2022/05/09 08:42:59;;;;;;;;;;;;;;;9.39;50.23;99469.38;5034054;28;19929;-61
2022/05/09 08:45:26;;;;;;;;;;;;;;;9.01;48.74;99483.75;5021814;28;19924;-59
2022/05/09 08:47:55;;;;;;;;;;;;;;;8.74;49.08;99475.38;5033958;28;19935;-61
2022/05/09 08:50:39;;;;;;;;;;;;;;;8.64;48.22;99481.16;5033789;28;20448;-61
2022/05/09 08:53:04;;;;;;;;;;;;;;;8.47;47.90;99459.84;5033981;28;19975;-61
2022/05/09 08:55:35;;;;;;;;;;;;;;;8.52;48.18;99459.16;5032636;28;19956;-60
2022/05/09 08:58:20;;;;;;;;;;;;;;;8.68;48.98;99461.19;5033924;28;19933;-61
2022/05/09 09:00:46;;;;;;;;;;;;;;;8.98;47.33;99470.97;5033657;28;19932;-60
2022/05/09 09:03:29;;;;;;;;;;;;;;;9.12;45.61;99484.78;5033411;28;19929;-61
2022/05/09 09:05:55;;;;;;;;;;;;;;;8.99;47.48;99476.03;5033468;28;19932;-61
2022/05/09 09:08:30;;;;;;;;;;;;;;;9.09;46.94;99472.84;5032355;28;19935;-61
2022/05/09 09:11:00;;;;;;;;;;;;;;;9.08;46.96;99460.66;5033720;28;20023;-61
2022/05/09 09:13:41;;;;;;;;;;;;;;;9.15;46.58;99487.81;5033272;28;19968;-61
2022/05/09 09:16:16;;;;;;;;;;;;;;;9.25;46.49;99476.69;5032118;28;19932;-59
2022/05/09 09:18:45;;;;;;;;;;;;;;;9.31;45.82;99470.47;5033491;28;19936;-61
2022/05/09 09:21:23;;;;;;;;;;;;;;;9.45;45.19;99463.97;5032948;28;20387;-60
2022/05/09 09:23:58;;;;;;;;;;;;;;;9.81;45.26;99474.56;5031899;28;19964;-61
2022/05/09 09:26:29;;;;;;;;;;;;;;;10.02;44.28;99458.09;5033084;28;20460;-60
2022/05/09 09:29:06;;;;;;;;;;;;;;;10.31;43.36;99459.00;5032074;28;20027;-62
2022/05/09 09:31:41;;;;;;;;;;;;;;;10.34;44.07;99455.09;5031841;28;20063;-61
2022/05/09 09:34:17;;;;;;;;;;;;;;;10.08;44.93;99475.72;4999151;28;19925;-62
2022/05/09 09:36:44;;;;;;;;;;;;;;;9.45;49.83;99516.88;5032759;28;19991;-62
2022/05/09 09:39:17;;;;;;;;;;;;;;;8.97;52.61;99493.97;5032799;28;20340;-61
2022/05/09 09:41:42;;;;;;;;;;;;;;;8.51;54.78;99513.03;5032716;28;19925;-61
2022/05/09 09:44:08;;;;;;;;;;;;;;;8.00;58.52;99501.75;5031520;28;20067;-62
2022/05/09 09:46:34;;;;;;;;;;;;;;;7.97;59.12;99507.44;5032894;28;19939;-59
2022/05/09 09:49:09;;;;;;;;;;;;;;;8.14;58.59;99502.41;5031623;28;19936;-61
2022/05/09 09:51:46;;;;;;;;;;;;;;;8.06;56.09;99495.59;5032953;28;19925;-62
2022/05/09 09:54:11;;;;;;;;;;;;;;;8.08;57.12;99508.56;5032838;28;19933;-59
2022/05/09 09:56:38;;;;;;;;;;;;;;;8.28;57.19;99514.44;5031367;28;19932;-60
2022/05/09 09:59:23;;;;;;;;;;;;;;;8.51;55.15;99516.47;5032768;28;20023;-61
2022/05/09 10:02:00;;;;;;;;;;;;;;;8.63;54.12;99501.50;5032440;28;20434;-60
2022/05/09 10:04:26;;;;;;;;;;;;;;;9.09;54.33;99501.94;5032645;28;19982;-61
2022/05/09 10:06:54;;;;;;;;;;;;;;;9.33;54.43;99500.97;5032656;28;19929;-61
2022/05/09 10:09:22;;;;;;;;;;;;;;;9.20;54.43;99497.72;5031305;28;20391;-59
2022/05/09 10:11:48;;;;;;;;;;;;;;;9.21;53.73;99492.22;5032556;28;20014;-61
2022/05/09 10:14:31;;;;;;;;;;;;;;;8.96;53.27;99510.03;5047887;28;19991;-63
2022/05/09 10:17:12;;;;;;;;;;;;;;;8.62;53.30;99544.00;5031955;28;19925;-60
2022/05/09 10:19:37;;;;;;;;;;;;;;;8.00;55.83;99532.59;5032408;28;19929;-60
2022/05/09 10:25:09;;;;;;;;;;;;;;;7.44;58.30;99497.31;5030987;28;19929;-61
2022/05/09 10:27:35;;;;;;;;;;;;;;;7.37;59.34;99509.75;5032273;28;19979;-61
2022/05/09 10:30:03;;;;;;;;;;;;;;;7.28;59.57;99519.75;5031957;28;19932;-61
2022/05/09 10:32:46;;;;;;;;;;;;;;;7.22;59.79;99544.31;5032190;28;19929;-60
2022/05/09 10:35:28;;;;;;;;;;;;;;;7.01;62.36;99566.53;5031979;28;19929;-61
2022/05/09 10:37:57;;;;;;;;;;;;;;;6.75;65.76;99568.25;5031752;28;19976;-60
2022/05/09 10:40:39;;;;;;;;;;;;;;;6.75;68.10;99564.81;5031727;28;20020;-60
2022/05/09 10:43:06;;;;;;;;;;;;;;;6.68;67.96;99579.84;5031710;28;20298;-63
2022/05/09 10:45:34;;;;;;;;;;;;;;;6.41;69.31;99608.03;5030416;28;20448;-61
2022/05/09 10:48:08;;;;;;;;;;;;;;;6.30;70.67;99589.22;5013990;28;20342;-60
2022/05/09 10:50:40;;;;;;;;;;;;;;;6.12;70.58;99587.22;5031581;28;19929;-60
2022/05/09 10:53:14;;;;;;;;;;;;;;;6.20;67.82;99594.06;5031160;28;19975;-63
2022/05/09 10:55:45;;;;;;;;;;;;;;;6.25;67.72;99589.00;5031287;28;19925;-60
2022/05/09 10:58:20;;;;;;;;;;;;;;;6.35;69.42;99586.78;5031199;28;20020;-61
2022/05/09 11:00:57;;;;;;;;;;;;;;;6.29;68.35;99594.66;5029998;28;19964;-61
2022/05/09 11:03:35;;;;;;;;;;;;;;;6.30;67.90;99594.47;5031603;28;19972;-61
2022/05/09 11:06:01;;;;;;;;;;;;;;;6.32;68.08;99583.72;5014283;28;19936;-63
2022/05/09 11:08:39;;;;;;;;;;;;;;;6.30;67.44;99586.59;5031597;28;20172;-60
2022/05/09 11:11:04;;;;;;;;;;;;;;;6.55;68.25;99580.66;5030660;28;19925;-61
2022/05/09 11:13:35;;;;;;;;;;;;;;;6.53;67.45;99569.50;5030279;28;20310;-61
2022/05/09 11:16:05;;;;;;;;;;;;;;;6.70;67.89;99554.88;5030551;28;20020;-61
2022/05/09 11:18:49;;;;;;;;;;;;;;;6.88;66.21;99553.41;5030230;28;19929;-61
2022/05/09 11:21:19;;;;;;;;;;;;;;;7.15;67.54;99539.09;5031656;28;19978;-60
2022/05/09 11:23:56;;;;;;;;;;;;;;;7.38;66.19;99533.28;4997531;28;19933;-59
2022/05/09 11:26:31;;;;;;;;;;;;;;;7.41;63.55;99535.50;5031673;28;20394;-62
2022/05/09 11:28:56;;;;;;;;;;;;;;;7.55;62.92;99533.56;5031344;28;19937;-61
2022/05/09 11:31:25;;;;;;;;;;;;;;;7.58;63.52;99533.13;5035149;28;19929;-60
2022/05/09 11:34:01;;;;;;;;;;;;;;;7.69;61.56;99523.72;5035494;28;19933;-60
2022/05/09 11:36:46;;;;;;;;;;;;;;;7.67;61.77;99537.13;5017314;28;20055;-61
2022/05/09 11:39:15;;;;;;;;;;;;;;;7.70;59.74;99534.03;5035071;28;19975;-60
2022/05/09 11:43:27;;;;;;;;;;;;;;;7.70;61.10;99536.69;5033627;28;19925;-61
2022/05/09 11:45:15;;;;;;;;;;;;;;;7.86;59.83;99542.47;5029305;28;19937;-60
2022/05/09 11:47:42;;;;;;;;;;;;;;;8.13;58.35;99541.22;5033478;28;19930;-62
2022/05/09 11:50:09;;;;;;;;;;;;;;;8.40;58.29;99533.06;5034968;28;19925;-62
2022/05/09 11:52:40;;;;;;;;;;;;;;;8.72;56.22;99539.00;5033480;28;19959;-64
2022/05/09 11:55:11;;;;;;;;;;;;;;;9.05;55.30;99535.13;5033416;28;19932;-62
2022/05/09 11:57:37;;;;;;;;;;;;;;;9.27;53.55;99541.56;5033610;28;19929;-61
2022/05/09 12:00:10;;;;;;;;;;;;;;;9.17;53.15;99582.78;5034649;28;19925;-59
2022/05/09 12:02:49;;;;;;;;;;;;;;;8.36;56.91;99743.97;5034707;28;19928;-61
2022/05/09 12:05:24;;;;;;;;;;;;;;;7.33;62.53;99708.97;5033677;28;19925;-61
2022/05/09 12:07:50;;;;;;;;;;;;;;;6.21;68.28;99723.88;5034992;28;19936;-61
2022/05/09 12:10:19;;;;;;;;;;;;;;;5.59;73.45;99683.59;5034235;28;20326;-61
2022/05/09 12:12:49;;;;;;;;;;;;;;;5.09;76.41;99677.75;5032989;28;20013;-60
2022/05/09 12:15:15;;;;;;;;;;;;;;;4.71;78.66;99686.03;5033281;28;19931;-62
2022/05/09 12:17:44;;;;;;;;;;;;;;;4.51;78.94;99683.25;5033216;28;20377;-61
2022/05/09 12:20:11;;;;;;;;;;;;;;;4.45;79.92;99661.19;5033051;28;19925;-61
2022/05/09 12:22:48;;;;;;;;;;;;;;;4.46;80.97;99662.00;5032691;28;19952;-61
2022/05/09 12:25:33;;;;;;;;;;;;;;;4.35;78.37;99673.81;5032791;28;19925;-61
2022/05/09 12:28:03;;;;;;;;;;;;;;;4.36;79.02;99664.97;5033953;28;19929;-62
2022/05/09 12:30:41;;;;;;;;;;;;;;;4.32;79.02;99650.59;5032993;28;19932;-61
2022/05/09 12:33:12;;;;;;;;;;;;;;;4.33;79.78;99641.72;5034014;28;19929;-61
2022/05/09 12:35:37;;;;;;;;;;;;;;;4.39;79.60;99633.09;5034169;28;20027;-61
2022/05/09 12:38:03;;;;;;;;;;;;;;;4.49;80.42;99638.00;5033990;28;19975;-60
2022/05/09 12:40:29;;;;;;;;;;;;;;;4.64;81.32;99625.56;5032281;28;19925;-62
2022/05/09 12:42:58;;;;;;;;;;;;;;;4.85;81.33;99635.19;5032508;28;19929;-62
2022/05/09 12:45:24;;;;;;;;;;;;;;;5.00;79.37;99642.97;5034141;28;20079;-62
2022/05/09 12:47:50;;;;;;;;;;;;;;;4.98;78.46;99623.94;5032527;28;19968;-61
2022/05/09 12:50:21;;;;;;;;;;;;;;;5.11;78.65;99621.34;5033821;28;19964;-62
2022/05/09 12:52:49;;;;;;;;;;;;;;;5.29;77.50;99627.91;5016355;28;19925;-62
2022/05/09 12:58:01;;;;;;;;;;;;;;;5.41;74.09;99615.81;5033550;28;19933;-60
2022/05/09 13:00:28;;;;;;;;;;;;;;;5.57;73.75;99610.19;5033414;28;20015;-61
2022/05/09 13:02:53;;;;;;;;;;;;;;;5.83;73.07;99614.69;5033792;28;20280;-61
2022/05/09 13:05:31;;;;;;;;;;;;;;;6.06;72.68;99616.13;5032555;28;20090;-61
2022/05/09 13:07:57;;;;;;;;;;;;;;;6.26;72.50;99616.13;5033337;28;19929;-62
2022/05/09 13:10:23;;;;;;;;;;;;;;;6.41;71.21;99600.13;5033584;28;19979;-61
2022/05/09 13:12:56;;;;;;;;;;;;;;;6.51;70.32;99597.91;5032478;28;20412;-60
2022/05/09 13:15:22;;;;;;;;;;;;;;;6.66;71.86;99589.75;5033381;28;19932;-61
2022/05/09 13:17:49;;;;;;;;;;;;;;;6.74;68.26;99586.91;5033279;28;19932;-61